sensor_id;sensor_type;location;lat;lon;timestamp;P1;durP1;ratioP1;P2;durP2;ratioP2
14187;SDS011;7175;51.978;5.330;2023-04-25T00:00:23;105.30;;;99.30;;
14187;SDS011;7175;51.978;5.330;2023-04-25T00:02:53;106.37;;;100.27;;
14187;SDS011;7175;51.978;5.330;2023-04-25T00:05:22;104.53;;;98.53;;
14187;SDS011;7175;51.978;5.330;2023-04-25T00:07:50;104.27;;;98.27;;
14187;SDS011;7175;51.978;5.330;2023-04-25T00:10:19;106.43;;;100.43;;
14187;SDS011;7175;51.978;5.330;2023-04-25T00:12:47;106.07;;;100.03;;
14187;SDS011;7175;51.978;5.330;2023-04-25T00:15:15;104.00;;;98.00;;
14187;SDS011;7175;51.978;5.330;2023-04-25T00:17:44;105.87;;;99.67;;
14187;SDS011;7175;51.978;5.330;2023-04-25T00:20:14;103.37;;;97.37;;
14187;SDS011;7175;51.978;5.330;2023-04-25T00:22:42;105.90;;;99.90;;
14187;SDS011;7175;51.978;5.330;2023-04-25T00:25:10;107.73;;;101.63;;
14187;SDS011;7175;51.978;5.330;2023-04-25T00:27:38;106.33;;;100.33;;
14187;SDS011;7175;51.978;5.330;2023-04-25T00:30:08;108.27;;;102.10;;
14187;SDS011;7175;51.978;5.330;2023-04-25T00:32:36;109.80;;;103.60;;
14187;SDS011;7175;51.978;5.330;2023-04-25T00:35:05;110.57;;;104.27;;
14187;SDS011;7175;51.978;5.330;2023-04-25T00:37:34;110.60;;;104.10;;
14187;SDS011;7175;51.978;5.330;2023-04-25T00:40:03;111.83;;;105.23;;
14187;SDS011;7175;51.978;5.330;2023-04-25T00:42:34;113.27;;;106.47;;
14187;SDS011;7175;51.978;5.330;2023-04-25T00:45:04;113.67;;;106.70;;
14187;SDS011;7175;51.978;5.330;2023-04-25T00:47:34;115.57;;;108.37;;
14187;SDS011;7175;51.978;5.330;2023-04-25T00:50:04;116.80;;;109.50;;
14187;SDS011;7175;51.978;5.330;2023-04-25T00:52:32;118.10;;;110.70;;
14187;SDS011;7175;51.978;5.330;2023-04-25T00:55:02;119.10;;;111.50;;
14187;SDS011;7175;51.978;5.330;2023-04-25T00:57:31;119.77;;;112.10;;
14187;SDS011;7175;51.978;5.330;2023-04-25T00:59:59;119.70;;;112.00;;
14187;SDS011;7175;51.978;5.330;2023-04-25T01:02:27;118.90;;;111.20;;
14187;SDS011;7175;51.978;5.330;2023-04-25T01:04:57;119.93;;;112.20;;
14187;SDS011;7175;51.978;5.330;2023-04-25T01:07:25;122.63;;;114.43;;
14187;SDS011;7175;51.978;5.330;2023-04-25T01:09:54;120.60;;;112.80;;
14187;SDS011;7175;51.978;5.330;2023-04-25T01:12:23;119.90;;;112.00;;
14187;SDS011;7175;51.978;5.330;2023-04-25T01:14:51;120.80;;;112.87;;
14187;SDS011;7175;51.978;5.330;2023-04-25T01:17:19;122.40;;;114.50;;
14187;SDS011;7175;51.978;5.330;2023-04-25T01:19:47;120.10;;;112.20;;
14187;SDS011;7175;51.978;5.330;2023-04-25T01:22:18;118.40;;;110.60;;
14187;SDS011;7175;51.978;5.330;2023-04-25T01:24:47;118.00;;;110.10;;
14187;SDS011;7175;51.978;5.330;2023-04-25T01:27:15;119.00;;;111.10;;
14187;SDS011;7175;51.978;5.330;2023-04-25T01:29:44;121.63;;;113.53;;
14187;SDS011;7175;51.978;5.330;2023-04-25T01:32:12;121.63;;;113.60;;
14187;SDS011;7175;51.978;5.330;2023-04-25T01:34:41;120.97;;;112.80;;
14187;SDS011;7175;51.978;5.330;2023-04-25T01:37:09;120.73;;;112.53;;
14187;SDS011;7175;51.978;5.330;2023-04-25T01:39:38;120.03;;;111.73;;
14187;SDS011;7175;51.978;5.330;2023-04-25T01:42:06;120.63;;;112.13;;
14187;SDS011;7175;51.978;5.330;2023-04-25T01:44:34;122.33;;;113.63;;
14187;SDS011;7175;51.978;5.330;2023-04-25T01:47:02;122.17;;;113.57;;
14187;SDS011;7175;51.978;5.330;2023-04-25T01:49:31;120.37;;;111.77;;
14187;SDS011;7175;51.978;5.330;2023-04-25T01:51:58;121.90;;;113.13;;
14187;SDS011;7175;51.978;5.330;2023-04-25T01:54:27;122.07;;;113.20;;
14187;SDS011;7175;51.978;5.330;2023-04-25T01:56:56;124.50;;;114.53;;
14187;SDS011;7175;51.978;5.330;2023-04-25T01:59:24;123.87;;;114.67;;
14187;SDS011;7175;51.978;5.330;2023-04-25T02:01:52;126.63;;;117.57;;
14187;SDS011;7175;51.978;5.330;2023-04-25T02:04:20;125.67;;;116.47;;
14187;SDS011;7175;51.978;5.330;2023-04-25T02:06:48;125.00;;;115.90;;
14187;SDS011;7175;51.978;5.330;2023-04-25T02:09:16;125.03;;;115.83;;
14187;SDS011;7175;51.978;5.330;2023-04-25T02:11:44;123.90;;;114.60;;
14187;SDS011;7175;51.978;5.330;2023-04-25T02:14:13;122.90;;;113.60;;
14187;SDS011;7175;51.978;5.330;2023-04-25T02:16:41;122.13;;;112.80;;
14187;SDS011;7175;51.978;5.330;2023-04-25T02:19:10;124.70;;;115.40;;
14187;SDS011;7175;51.978;5.330;2023-04-25T02:21:38;122.80;;;113.37;;
14187;SDS011;7175;51.978;5.330;2023-04-25T02:24:06;122.30;;;112.90;;
14187;SDS011;7175;51.978;5.330;2023-04-25T02:26:35;123.93;;;114.50;;
14187;SDS011;7175;51.978;5.330;2023-04-25T02:29:03;123.73;;;114.23;;
14187;SDS011;7175;51.978;5.330;2023-04-25T02:31:32;125.27;;;115.67;;
14187;SDS011;7175;51.978;5.330;2023-04-25T02:34:00;124.93;;;115.33;;
14187;SDS011;7175;51.978;5.330;2023-04-25T02:36:29;124.70;;;115.10;;
14187;SDS011;7175;51.978;5.330;2023-04-25T02:39:00;127.57;;;117.57;;
14187;SDS011;7175;51.978;5.330;2023-04-25T02:41:29;126.00;;;116.20;;
14187;SDS011;7175;51.978;5.330;2023-04-25T02:43:57;127.20;;;117.30;;
14187;SDS011;7175;51.978;5.330;2023-04-25T02:46:25;126.17;;;116.23;;
14187;SDS011;7175;51.978;5.330;2023-04-25T02:49:05;126.50;;;116.53;;
14187;SDS011;7175;51.978;5.330;2023-04-25T02:51:33;126.47;;;116.50;;
14187;SDS011;7175;51.978;5.330;2023-04-25T02:54:01;125.87;;;115.80;;
14187;SDS011;7175;51.978;5.330;2023-04-25T02:56:29;126.10;;;116.00;;
14187;SDS011;7175;51.978;5.330;2023-04-25T02:58:57;126.77;;;116.60;;
14187;SDS011;7175;51.978;5.330;2023-04-25T03:01:25;128.97;;;118.77;;
14187;SDS011;7175;51.978;5.330;2023-04-25T03:03:53;128.07;;;117.80;;
14187;SDS011;7175;51.978;5.330;2023-04-25T03:06:22;128.13;;;117.83;;
14187;SDS011;7175;51.978;5.330;2023-04-25T03:08:50;131.30;;;121.00;;
14187;SDS011;7175;51.978;5.330;2023-04-25T03:11:18;131.10;;;120.90;;
14187;SDS011;7175;51.978;5.330;2023-04-25T03:13:47;131.27;;;121.13;;
14187;SDS011;7175;51.978;5.330;2023-04-25T03:16:15;129.47;;;119.27;;
14187;SDS011;7175;51.978;5.330;2023-04-25T03:18:43;130.73;;;120.53;;
14187;SDS011;7175;51.978;5.330;2023-04-25T03:21:12;128.57;;;118.27;;
14187;SDS011;7175;51.978;5.330;2023-04-25T03:23:44;128.27;;;118.00;;
14187;SDS011;7175;51.978;5.330;2023-04-25T03:26:12;127.13;;;116.83;;
14187;SDS011;7175;51.978;5.330;2023-04-25T03:28:40;127.03;;;116.67;;
14187;SDS011;7175;51.978;5.330;2023-04-25T03:31:08;129.37;;;118.87;;
14187;SDS011;7175;51.978;5.330;2023-04-25T03:33:36;126.63;;;116.30;;
14187;SDS011;7175;51.978;5.330;2023-04-25T03:36:04;128.80;;;118.20;;
14187;SDS011;7175;51.978;5.330;2023-04-25T03:38:33;125.30;;;114.90;;
14187;SDS011;7175;51.978;5.330;2023-04-25T03:41:02;126.67;;;116.07;;
14187;SDS011;7175;51.978;5.330;2023-04-25T03:43:30;129.47;;;118.80;;
14187;SDS011;7175;51.978;5.330;2023-04-25T03:45:58;128.70;;;118.10;;
14187;SDS011;7175;51.978;5.330;2023-04-25T03:48:27;130.10;;;119.50;;
14187;SDS011;7175;51.978;5.330;2023-04-25T03:50:55;127.40;;;117.13;;
14187;SDS011;7175;51.978;5.330;2023-04-25T03:53:23;126.00;;;115.80;;
14187;SDS011;7175;51.978;5.330;2023-04-25T03:55:51;127.80;;;117.70;;
14187;SDS011;7175;51.978;5.330;2023-04-25T03:58:20;125.83;;;115.93;;
14187;SDS011;7175;51.978;5.330;2023-04-25T04:00:49;122.47;;;112.77;;
14187;SDS011;7175;51.978;5.330;2023-04-25T04:03:18;127.67;;;117.77;;
14187;SDS011;7175;51.978;5.330;2023-04-25T04:05:47;123.83;;;113.93;;
14187;SDS011;7175;51.978;5.330;2023-04-25T04:08:15;126.13;;;116.30;;
14187;SDS011;7175;51.978;5.330;2023-04-25T04:10:43;124.07;;;114.27;;
14187;SDS011;7175;51.978;5.330;2023-04-25T04:13:11;123.83;;;114.10;;
14187;SDS011;7175;51.978;5.330;2023-04-25T04:15:40;131.33;;;121.53;;
14187;SDS011;7175;51.978;5.330;2023-04-25T04:18:08;135.30;;;125.23;;
14187;SDS011;7175;51.978;5.330;2023-04-25T04:20:37;142.57;;;129.73;;
14187;SDS011;7175;51.978;5.330;2023-04-25T04:23:04;136.23;;;126.23;;
14187;SDS011;7175;51.978;5.330;2023-04-25T04:25:32;138.07;;;128.17;;
14187;SDS011;7175;51.978;5.330;2023-04-25T04:28:01;141.20;;;131.10;;
14187;SDS011;7175;51.978;5.330;2023-04-25T04:30:30;145.30;;;135.30;;
14187;SDS011;7175;51.978;5.330;2023-04-25T04:33:00;148.27;;;138.53;;
14187;SDS011;7175;51.978;5.330;2023-04-25T04:35:29;148.30;;;138.50;;
14187;SDS011;7175;51.978;5.330;2023-04-25T04:37:57;141.93;;;132.53;;
14187;SDS011;7175;51.978;5.330;2023-04-25T04:40:28;141.50;;;132.07;;
14187;SDS011;7175;51.978;5.330;2023-04-25T04:42:57;139.27;;;129.87;;
14187;SDS011;7175;51.978;5.330;2023-04-25T04:45:25;141.47;;;132.27;;
14187;SDS011;7175;51.978;5.330;2023-04-25T04:47:53;138.70;;;129.40;;
14187;SDS011;7175;51.978;5.330;2023-04-25T04:50:23;136.07;;;127.00;;
14187;SDS011;7175;51.978;5.330;2023-04-25T04:52:52;136.27;;;127.27;;
14187;SDS011;7175;51.978;5.330;2023-04-25T04:55:21;131.10;;;122.40;;
14187;SDS011;7175;51.978;5.330;2023-04-25T04:57:49;127.23;;;118.97;;
14187;SDS011;7175;51.978;5.330;2023-04-25T05:00:17;127.03;;;118.93;;
14187;SDS011;7175;51.978;5.330;2023-04-25T05:02:47;127.13;;;119.00;;
14187;SDS011;7175;51.978;5.330;2023-04-25T05:05:15;124.40;;;116.50;;
14187;SDS011;7175;51.978;5.330;2023-04-25T05:07:44;122.37;;;114.57;;
14187;SDS011;7175;51.978;5.330;2023-04-25T05:10:12;123.43;;;115.63;;
14187;SDS011;7175;51.978;5.330;2023-04-25T05:12:40;120.27;;;112.67;;
14187;SDS011;7175;51.978;5.330;2023-04-25T05:15:09;117.37;;;110.03;;
14187;SDS011;7175;51.978;5.330;2023-04-25T05:17:37;118.27;;;110.77;;
14187;SDS011;7175;51.978;5.330;2023-04-25T05:20:06;118.50;;;111.00;;
14187;SDS011;7175;51.978;5.330;2023-04-25T05:22:35;120.07;;;112.57;;
14187;SDS011;7175;51.978;5.330;2023-04-25T05:25:05;120.73;;;113.33;;
14187;SDS011;7175;51.978;5.330;2023-04-25T05:27:33;118.97;;;111.67;;
14187;SDS011;7175;51.978;5.330;2023-04-25T05:30:01;116.23;;;109.13;;
14187;SDS011;7175;51.978;5.330;2023-04-25T05:32:29;115.27;;;108.17;;
14187;SDS011;7175;51.978;5.330;2023-04-25T05:34:57;113.60;;;106.80;;
14187;SDS011;7175;51.978;5.330;2023-04-25T05:37:25;113.60;;;106.70;;
14187;SDS011;7175;51.978;5.330;2023-04-25T05:39:53;115.67;;;108.67;;
14187;SDS011;7175;51.978;5.330;2023-04-25T05:42:23;114.23;;;107.33;;
14187;SDS011;7175;51.978;5.330;2023-04-25T05:44:51;113.47;;;106.67;;
14187;SDS011;7175;51.978;5.330;2023-04-25T05:47:19;112.70;;;105.90;;
14187;SDS011;7175;51.978;5.330;2023-04-25T05:49:47;114.13;;;107.43;;
14187;SDS011;7175;51.978;5.330;2023-04-25T05:52:15;110.93;;;104.43;;
14187;SDS011;7175;51.978;5.330;2023-04-25T05:54:43;108.07;;;101.67;;
14187;SDS011;7175;51.978;5.330;2023-04-25T05:57:18;105.73;;;99.43;;
14187;SDS011;7175;51.978;5.330;2023-04-25T05:59:48;104.80;;;98.60;;
14187;SDS011;7175;51.978;5.330;2023-04-25T06:02:16;107.80;;;101.40;;
14187;SDS011;7175;51.978;5.330;2023-04-25T06:04:45;106.40;;;100.10;;
14187;SDS011;7175;51.978;5.330;2023-04-25T06:07:13;104.90;;;98.70;;
14187;SDS011;7175;51.978;5.330;2023-04-25T06:09:41;101.50;;;95.50;;
14187;SDS011;7175;51.978;5.330;2023-04-25T06:12:10;95.60;;;89.90;;
14187;SDS011;7175;51.978;5.330;2023-04-25T06:14:38;89.93;;;84.53;;
14187;SDS011;7175;51.978;5.330;2023-04-25T06:17:08;83.80;;;78.67;;
14187;SDS011;7175;51.978;5.330;2023-04-25T06:19:36;77.93;;;73.03;;
14187;SDS011;7175;51.978;5.330;2023-04-25T06:22:04;66.40;;;62.00;;
14187;SDS011;7175;51.978;5.330;2023-04-25T06:24:33;59.03;;;55.03;;
14187;SDS011;7175;51.978;5.330;2023-04-25T06:27:01;52.33;;;48.70;;
14187;SDS011;7175;51.978;5.330;2023-04-25T06:29:29;49.77;;;46.27;;
14187;SDS011;7175;51.978;5.330;2023-04-25T06:31:57;48.93;;;45.53;;
14187;SDS011;7175;51.978;5.330;2023-04-25T06:34:27;47.03;;;43.73;;
14187;SDS011;7175;51.978;5.330;2023-04-25T06:36:55;44.00;;;40.90;;
14187;SDS011;7175;51.978;5.330;2023-04-25T06:39:23;40.77;;;37.87;;
14187;SDS011;7175;51.978;5.330;2023-04-25T06:41:51;38.63;;;35.93;;
14187;SDS011;7175;51.978;5.330;2023-04-25T06:44:19;37.47;;;34.77;;
14187;SDS011;7175;51.978;5.330;2023-04-25T06:46:49;36.23;;;33.63;;
14187;SDS011;7175;51.978;5.330;2023-04-25T06:49:17;35.57;;;32.97;;
14187;SDS011;7175;51.978;5.330;2023-04-25T06:51:46;34.13;;;31.63;;
14187;SDS011;7175;51.978;5.330;2023-04-25T06:54:14;29.90;;;27.60;;
14187;SDS011;7175;51.978;5.330;2023-04-25T06:56:43;29.93;;;27.73;;
14187;SDS011;7175;51.978;5.330;2023-04-25T06:59:11;30.27;;;27.80;;
14187;SDS011;7175;51.978;5.330;2023-04-25T07:01:39;27.97;;;25.77;;
14187;SDS011;7175;51.978;5.330;2023-04-25T07:04:07;26.17;;;24.07;;
14187;SDS011;7175;51.978;5.330;2023-04-25T07:06:36;27.43;;;25.03;;
14187;SDS011;7175;51.978;5.330;2023-04-25T07:09:09;25.13;;;23.10;;
14187;SDS011;7175;51.978;5.330;2023-04-25T07:11:38;24.43;;;22.43;;
14187;SDS011;7175;51.978;5.330;2023-04-25T07:14:06;23.10;;;21.20;;
14187;SDS011;7175;51.978;5.330;2023-04-25T07:16:34;24.97;;;22.97;;
14187;SDS011;7175;51.978;5.330;2023-04-25T07:19:02;24.10;;;22.20;;
14187;SDS011;7175;51.978;5.330;2023-04-25T07:21:30;23.67;;;21.77;;
14187;SDS011;7175;51.978;5.330;2023-04-25T07:23:59;22.80;;;20.90;;
14187;SDS011;7175;51.978;5.330;2023-04-25T07:26:28;23.40;;;21.50;;
14187;SDS011;7175;51.978;5.330;2023-04-25T07:28:56;22.07;;;20.27;;
14187;SDS011;7175;51.978;5.330;2023-04-25T07:31:24;22.37;;;20.57;;
14187;SDS011;7175;51.978;5.330;2023-04-25T07:33:52;21.97;;;20.17;;
14187;SDS011;7175;51.978;5.330;2023-04-25T07:36:20;22.80;;;21.00;;
14187;SDS011;7175;51.978;5.330;2023-04-25T07:38:48;22.23;;;20.43;;
14187;SDS011;7175;51.978;5.330;2023-04-25T07:41:16;21.43;;;19.73;;
14187;SDS011;7175;51.978;5.330;2023-04-25T07:43:45;20.93;;;19.23;;
14187;SDS011;7175;51.978;5.330;2023-04-25T07:46:13;20.47;;;18.77;;
14187;SDS011;7175;51.978;5.330;2023-04-25T07:48:42;21.60;;;19.90;;
14187;SDS011;7175;51.978;5.330;2023-04-25T07:51:10;20.67;;;18.97;;
14187;SDS011;7175;51.978;5.330;2023-04-25T07:53:38;20.93;;;19.23;;
14187;SDS011;7175;51.978;5.330;2023-04-25T07:56:06;20.97;;;19.27;;
14187;SDS011;7175;51.978;5.330;2023-04-25T07:58:35;21.10;;;19.37;;
14187;SDS011;7175;51.978;5.330;2023-04-25T08:01:05;21.40;;;19.60;;
14187;SDS011;7175;51.978;5.330;2023-04-25T08:03:33;20.37;;;18.67;;
14187;SDS011;7175;51.978;5.330;2023-04-25T08:06:02;20.53;;;18.83;;
14187;SDS011;7175;51.978;5.330;2023-04-25T08:08:33;20.70;;;19.00;;
14187;SDS011;7175;51.978;5.330;2023-04-25T08:11:02;20.83;;;19.13;;
14187;SDS011;7175;51.978;5.330;2023-04-25T08:13:30;21.20;;;19.50;;
14187;SDS011;7175;51.978;5.330;2023-04-25T08:15:58;21.03;;;19.43;;
14187;SDS011;7175;51.978;5.330;2023-04-25T08:18:27;21.43;;;19.73;;
14187;SDS011;7175;51.978;5.330;2023-04-25T08:20:56;21.60;;;20.00;;
14187;SDS011;7175;51.978;5.330;2023-04-25T08:23:24;21.93;;;20.13;;
14187;SDS011;7175;51.978;5.330;2023-04-25T08:25:52;21.30;;;19.70;;
14187;SDS011;7175;51.978;5.330;2023-04-25T08:28:20;20.97;;;19.37;;
14187;SDS011;7175;51.978;5.330;2023-04-25T08:30:48;21.47;;;19.83;;
14187;SDS011;7175;51.978;5.330;2023-04-25T08:33:16;21.47;;;19.87;;
14187;SDS011;7175;51.978;5.330;2023-04-25T08:35:46;21.60;;;19.90;;
14187;SDS011;7175;51.978;5.330;2023-04-25T08:38:15;21.40;;;19.70;;
14187;SDS011;7175;51.978;5.330;2023-04-25T08:40:44;21.90;;;20.20;;
14187;SDS011;7175;51.978;5.330;2023-04-25T08:43:13;22.00;;;20.30;;
14187;SDS011;7175;51.978;5.330;2023-04-25T08:45:41;21.37;;;19.67;;
14187;SDS011;7175;51.978;5.330;2023-04-25T08:48:11;21.17;;;19.47;;
14187;SDS011;7175;51.978;5.330;2023-04-25T08:50:40;20.93;;;19.23;;
14187;SDS011;7175;51.978;5.330;2023-04-25T08:53:19;21.10;;;19.40;;
14187;SDS011;7175;51.978;5.330;2023-04-25T08:55:52;21.17;;;19.47;;
14187;SDS011;7175;51.978;5.330;2023-04-25T08:58:22;21.07;;;19.37;;
14187;SDS011;7175;51.978;5.330;2023-04-25T09:00:51;21.07;;;19.37;;
14187;SDS011;7175;51.978;5.330;2023-04-25T09:03:20;21.33;;;19.63;;
14187;SDS011;7175;51.978;5.330;2023-04-25T09:05:50;20.43;;;18.73;;
14187;SDS011;7175;51.978;5.330;2023-04-25T09:08:19;20.17;;;18.47;;
14187;SDS011;7175;51.978;5.330;2023-04-25T09:10:47;21.53;;;19.73;;
14187;SDS011;7175;51.978;5.330;2023-04-25T09:13:20;20.40;;;18.70;;
14187;SDS011;7175;51.978;5.330;2023-04-25T09:15:53;20.27;;;18.67;;
14187;SDS011;7175;51.978;5.330;2023-04-25T09:18:22;20.83;;;19.23;;
14187;SDS011;7175;51.978;5.330;2023-04-25T09:20:58;21.23;;;19.60;;
14187;SDS011;7175;51.978;5.330;2023-04-25T09:23:40;21.20;;;19.50;;
14187;SDS011;7175;51.978;5.330;2023-04-25T09:26:09;20.93;;;19.23;;
14187;SDS011;7175;51.978;5.330;2023-04-25T09:28:41;20.57;;;18.90;;
14187;SDS011;7175;51.978;5.330;2023-04-25T09:31:09;21.10;;;19.40;;
14187;SDS011;7175;51.978;5.330;2023-04-25T09:33:38;20.80;;;19.10;;
14187;SDS011;7175;51.978;5.330;2023-04-25T09:36:09;20.43;;;18.73;;
14187;SDS011;7175;51.978;5.330;2023-04-25T09:38:39;20.43;;;18.73;;
14187;SDS011;7175;51.978;5.330;2023-04-25T09:41:10;20.90;;;19.20;;
14187;SDS011;7175;51.978;5.330;2023-04-25T09:43:39;20.47;;;18.77;;
14187;SDS011;7175;51.978;5.330;2023-04-25T09:46:08;20.43;;;18.73;;
14187;SDS011;7175;51.978;5.330;2023-04-25T09:48:37;19.93;;;18.23;;
14187;SDS011;7175;51.978;5.330;2023-04-25T09:51:06;20.67;;;18.97;;
14187;SDS011;7175;51.978;5.330;2023-04-25T09:53:37;20.30;;;18.60;;
14187;SDS011;7175;51.978;5.330;2023-04-25T09:56:07;21.30;;;19.50;;
14187;SDS011;7175;51.978;5.330;2023-04-25T09:58:37;19.73;;;18.13;;
14187;SDS011;7175;51.978;5.330;2023-04-25T10:01:06;20.57;;;18.87;;
14187;SDS011;7175;51.978;5.330;2023-04-25T10:03:36;20.57;;;18.87;;
14187;SDS011;7175;51.978;5.330;2023-04-25T10:06:07;19.77;;;18.17;;
14187;SDS011;7175;51.978;5.330;2023-04-25T10:08:38;20.03;;;18.43;;
14187;SDS011;7175;51.978;5.330;2023-04-25T10:11:07;19.40;;;17.80;;
14187;SDS011;7175;51.978;5.330;2023-04-25T10:13:36;19.47;;;17.87;;
14187;SDS011;7175;51.978;5.330;2023-04-25T10:16:04;19.53;;;17.93;;
14187;SDS011;7175;51.978;5.330;2023-04-25T10:18:32;19.43;;;17.83;;
14187;SDS011;7175;51.978;5.330;2023-04-25T10:21:01;19.50;;;17.90;;
14187;SDS011;7175;51.978;5.330;2023-04-25T10:23:31;19.77;;;18.17;;
14187;SDS011;7175;51.978;5.330;2023-04-25T10:26:02;19.73;;;18.13;;
14187;SDS011;7175;51.978;5.330;2023-04-25T10:28:30;19.90;;;18.30;;
14187;SDS011;7175;51.978;5.330;2023-04-25T10:31:25;19.50;;;18.00;;
14187;SDS011;7175;51.978;5.330;2023-04-25T10:33:53;20.13;;;18.53;;
14187;SDS011;7175;51.978;5.330;2023-04-25T10:36:22;19.83;;;18.23;;
14187;SDS011;7175;51.978;5.330;2023-04-25T10:38:51;19.83;;;18.23;;
14187;SDS011;7175;51.978;5.330;2023-04-25T10:41:22;20.07;;;18.47;;
14187;SDS011;7175;51.978;5.330;2023-04-25T10:43:58;20.10;;;18.50;;
14187;SDS011;7175;51.978;5.330;2023-04-25T10:46:28;20.07;;;18.47;;
14187;SDS011;7175;51.978;5.330;2023-04-25T10:48:58;20.27;;;18.67;;
14187;SDS011;7175;51.978;5.330;2023-04-25T10:51:31;20.53;;;18.93;;
14187;SDS011;7175;51.978;5.330;2023-04-25T10:54:19;20.83;;;19.23;;
14187;SDS011;7175;51.978;5.330;2023-04-25T10:56:53;21.33;;;19.63;;
14187;SDS011;7175;51.978;5.330;2023-04-25T10:59:23;20.93;;;19.23;;
14187;SDS011;7175;51.978;5.330;2023-04-25T11:01:52;20.60;;;18.90;;
14187;SDS011;7175;51.978;5.330;2023-04-25T11:04:22;20.83;;;19.13;;
14187;SDS011;7175;51.978;5.330;2023-04-25T11:06:57;19.93;;;18.33;;
14187;SDS011;7175;51.978;5.330;2023-04-25T11:09:33;20.03;;;18.43;;
14187;SDS011;7175;51.978;5.330;2023-04-25T11:12:03;20.13;;;18.53;;
14187;SDS011;7175;51.978;5.330;2023-04-25T11:14:32;20.47;;;18.77;;
14187;SDS011;7175;51.978;5.330;2023-04-25T11:17:00;20.30;;;18.60;;
14187;SDS011;7175;51.978;5.330;2023-04-25T11:19:29;20.40;;;18.70;;
14187;SDS011;7175;51.978;5.330;2023-04-25T11:21:57;20.17;;;18.47;;
14187;SDS011;7175;51.978;5.330;2023-04-25T11:24:27;19.80;;;18.17;;
14187;SDS011;7175;51.978;5.330;2023-04-25T11:26:55;19.73;;;18.13;;
14187;SDS011;7175;51.978;5.330;2023-04-25T11:29:27;20.23;;;18.53;;
14187;SDS011;7175;51.978;5.330;2023-04-25T11:31:56;20.07;;;18.37;;
14187;SDS011;7175;51.978;5.330;2023-04-25T11:34:25;19.30;;;17.80;;
14187;SDS011;7175;51.978;5.330;2023-04-25T11:36:53;19.37;;;17.87;;
14187;SDS011;7175;51.978;5.330;2023-04-25T11:39:21;19.83;;;18.33;;
14187;SDS011;7175;51.978;5.330;2023-04-25T11:41:52;20.17;;;18.60;;
14187;SDS011;7175;51.978;5.330;2023-04-25T11:44:21;20.20;;;18.60;;
14187;SDS011;7175;51.978;5.330;2023-04-25T11:46:51;20.10;;;18.50;;
14187;SDS011;7175;51.978;5.330;2023-04-25T11:49:19;20.00;;;18.40;;
14187;SDS011;7175;51.978;5.330;2023-04-25T11:51:48;20.70;;;19.10;;
14187;SDS011;7175;51.978;5.330;2023-04-25T11:54:16;20.50;;;18.90;;
14187;SDS011;7175;51.978;5.330;2023-04-25T11:56:45;20.03;;;18.43;;
14187;SDS011;7175;51.978;5.330;2023-04-25T11:59:13;20.70;;;19.00;;
14187;SDS011;7175;51.978;5.330;2023-04-25T12:01:47;21.07;;;19.30;;
14187;SDS011;7175;51.978;5.330;2023-04-25T12:04:18;19.97;;;18.37;;
14187;SDS011;7175;51.978;5.330;2023-04-25T12:06:48;20.63;;;18.93;;
14187;SDS011;7175;51.978;5.330;2023-04-25T12:09:19;20.30;;;18.67;;
14187;SDS011;7175;51.978;5.330;2023-04-25T12:11:52;20.63;;;19.00;;
14187;SDS011;7175;51.978;5.330;2023-04-25T12:14:21;19.93;;;18.33;;
14187;SDS011;7175;51.978;5.330;2023-04-25T12:16:51;19.67;;;18.07;;
14187;SDS011;7175;51.978;5.330;2023-04-25T12:19:20;19.40;;;17.80;;
14187;SDS011;7175;51.978;5.330;2023-04-25T12:21:49;19.90;;;18.20;;
14187;SDS011;7175;51.978;5.330;2023-04-25T12:24:21;19.37;;;17.77;;
14187;SDS011;7175;51.978;5.330;2023-04-25T12:26:52;19.17;;;17.67;;
14187;SDS011;7175;51.978;5.330;2023-04-25T12:29:21;19.37;;;17.87;;
14187;SDS011;7175;51.978;5.330;2023-04-25T12:31:57;19.07;;;17.57;;
14187;SDS011;7175;51.978;5.330;2023-04-25T12:34:27;19.07;;;17.47;;
14187;SDS011;7175;51.978;5.330;2023-04-25T12:36:57;19.43;;;17.83;;
14187;SDS011;7175;51.978;5.330;2023-04-25T12:39:26;19.90;;;18.20;;
14187;SDS011;7175;51.978;5.330;2023-04-25T12:41:54;19.70;;;18.10;;
14187;SDS011;7175;51.978;5.330;2023-04-25T12:44:22;20.17;;;18.57;;
14187;SDS011;7175;51.978;5.330;2023-04-25T12:46:50;20.60;;;18.90;;
14187;SDS011;7175;51.978;5.330;2023-04-25T12:49:19;20.03;;;18.43;;
14187;SDS011;7175;51.978;5.330;2023-04-25T12:51:49;20.23;;;18.63;;
14187;SDS011;7175;51.978;5.330;2023-04-25T12:54:17;20.17;;;18.57;;
14187;SDS011;7175;51.978;5.330;2023-04-25T12:56:46;20.23;;;18.60;;
14187;SDS011;7175;51.978;5.330;2023-04-25T12:59:14;20.30;;;18.60;;
14187;SDS011;7175;51.978;5.330;2023-04-25T13:01:43;20.23;;;18.53;;
14187;SDS011;7175;51.978;5.330;2023-04-25T13:04:12;20.23;;;18.53;;
14187;SDS011;7175;51.978;5.330;2023-04-25T13:06:40;21.57;;;19.77;;
14187;SDS011;7175;51.978;5.330;2023-04-25T13:09:09;21.60;;;19.80;;
14187;SDS011;7175;51.978;5.330;2023-04-25T13:11:39;19.83;;;18.17;;
14187;SDS011;7175;51.978;5.330;2023-04-25T13:14:08;20.40;;;18.70;;
14187;SDS011;7175;51.978;5.330;2023-04-25T13:16:36;20.03;;;18.43;;
14187;SDS011;7175;51.978;5.330;2023-04-25T13:19:04;20.60;;;18.90;;
14187;SDS011;7175;51.978;5.330;2023-04-25T13:21:34;20.50;;;18.80;;
14187;SDS011;7175;51.978;5.330;2023-04-25T13:24:02;19.57;;;17.97;;
14187;SDS011;7175;51.978;5.330;2023-04-25T13:26:32;20.03;;;18.33;;
14187;SDS011;7175;51.978;5.330;2023-04-25T13:29:00;19.90;;;18.30;;
14187;SDS011;7175;51.978;5.330;2023-04-25T13:31:30;19.97;;;18.37;;
14187;SDS011;7175;51.978;5.330;2023-04-25T13:33:59;20.10;;;18.50;;
14187;SDS011;7175;51.978;5.330;2023-04-25T13:36:27;19.73;;;18.13;;
14187;SDS011;7175;51.978;5.330;2023-04-25T13:38:55;21.17;;;19.37;;
14187;SDS011;7175;51.978;5.330;2023-04-25T13:41:23;19.73;;;18.13;;
14187;SDS011;7175;51.978;5.330;2023-04-25T13:43:53;19.93;;;18.23;;
14187;SDS011;7175;51.978;5.330;2023-04-25T13:46:21;19.70;;;18.00;;
14187;SDS011;7175;51.978;5.330;2023-04-25T13:49:09;19.50;;;17.90;;
14187;SDS011;7175;51.978;5.330;2023-04-25T13:51:39;19.33;;;17.73;;
14187;SDS011;7175;51.978;5.330;2023-04-25T13:54:07;19.60;;;18.00;;
14187;SDS011;7175;51.978;5.330;2023-04-25T13:56:35;19.40;;;17.80;;
14187;SDS011;7175;51.978;5.330;2023-04-25T13:59:04;19.73;;;18.03;;
14187;SDS011;7175;51.978;5.330;2023-04-25T14:01:33;19.60;;;18.00;;
14187;SDS011;7175;51.978;5.330;2023-04-25T14:04:02;19.37;;;17.77;;
14187;SDS011;7175;51.978;5.330;2023-04-25T14:06:32;19.80;;;18.20;;
14187;SDS011;7175;51.978;5.330;2023-04-25T14:09:00;19.20;;;17.60;;
14187;SDS011;7175;51.978;5.330;2023-04-25T14:11:30;18.97;;;17.47;;
14187;SDS011;7175;51.978;5.330;2023-04-25T14:13:59;18.93;;;17.33;;
14187;SDS011;7175;51.978;5.330;2023-04-25T14:16:29;18.83;;;17.23;;
14187;SDS011;7175;51.978;5.330;2023-04-25T14:18:58;19.00;;;17.50;;
14187;SDS011;7175;51.978;5.330;2023-04-25T14:21:26;19.63;;;17.93;;
14187;SDS011;7175;51.978;5.330;2023-04-25T14:23:55;20.10;;;18.40;;
14187;SDS011;7175;51.978;5.330;2023-04-25T14:26:23;19.53;;;17.83;;
14187;SDS011;7175;51.978;5.330;2023-04-25T14:28:52;18.83;;;17.23;;
14187;SDS011;7175;51.978;5.330;2023-04-25T14:31:20;20.00;;;18.17;;
14187;SDS011;7175;51.978;5.330;2023-04-25T14:33:50;18.90;;;17.40;;